sensor_id;sensor_type;location;lat;lon;timestamp;P1;durP1;ratioP1;P2;durP2;ratioP2
4198;SDS011;2113;50.946;14.610;2024-01-10T00:01:00;38.83;;;15.23;;
4198;SDS011;2113;50.946;14.610;2024-01-10T00:03:29;30.63;;;15.48;;
4198;SDS011;2113;50.946;14.610;2024-01-10T00:05:57;35.80;;;13.38;;
4198;SDS011;2113;50.946;14.610;2024-01-10T00:08:26;28.38;;;14.70;;
4198;SDS011;2113;50.946;14.610;2024-01-10T00:11:19;38.47;;;13.57;;
4198;SDS011;2113;50.946;14.610;2024-01-10T00:13:49;33.65;;;15.60;;
4198;SDS011;2113;50.946;14.610;2024-01-10T00:16:18;38.70;;;16.80;;
4198;SDS011;2113;50.946;14.610;2024-01-10T00:18:46;37.67;;;15.73;;
4198;SDS011;2113;50.946;14.610;2024-01-10T00:21:15;42.03;;;16.80;;
4198;SDS011;2113;50.946;14.610;2024-01-10T00:23:43;43.90;;;19.70;;
4198;SDS011;2113;50.946;14.610;2024-01-10T00:26:12;40.67;;;18.42;;
4198;SDS011;2113;50.946;14.610;2024-01-10T00:28:40;41.25;;;15.93;;
4198;SDS011;2113;50.946;14.610;2024-01-10T00:31:10;49.88;;;18.80;;
4198;SDS011;2113;50.946;14.610;2024-01-10T00:33:38;36.95;;;17.25;;
4198;SDS011;2113;50.946;14.610;2024-01-10T00:36:06;37.00;;;16.02;;
4198;SDS011;2113;50.946;14.610;2024-01-10T00:38:36;44.03;;;17.58;;
4198;SDS011;2113;50.946;14.610;2024-01-10T00:41:05;52.20;;;19.42;;
4198;SDS011;2113;50.946;14.610;2024-01-10T00:43:33;41.38;;;13.48;;
4198;SDS011;2113;50.946;14.610;2024-01-10T00:46:01;30.30;;;14.52;;
4198;SDS011;2113;50.946;14.610;2024-01-10T00:48:31;27.45;;;14.02;;
4198;SDS011;2113;50.946;14.610;2024-01-10T00:51:00;25.45;;;13.43;;
4198;SDS011;2113;50.946;14.610;2024-01-10T00:53:28;35.45;;;16.30;;
4198;SDS011;2113;50.946;14.610;2024-01-10T00:55:57;30.48;;;12.27;;
4198;SDS011;2113;50.946;14.610;2024-01-10T00:58:25;38.25;;;14.60;;
4198;SDS011;2113;50.946;14.610;2024-01-10T01:00:53;25.70;;;13.10;;
4198;SDS011;2113;50.946;14.610;2024-01-10T01:03:21;34.72;;;15.48;;
4198;SDS011;2113;50.946;14.610;2024-01-10T01:05:51;38.90;;;13.60;;
4198;SDS011;2113;50.946;14.610;2024-01-10T01:08:19;26.30;;;11.85;;
4198;SDS011;2113;50.946;14.610;2024-01-10T01:10:48;20.20;;;10.45;;
4198;SDS011;2113;50.946;14.610;2024-01-10T01:13:16;33.22;;;12.18;;
4198;SDS011;2113;50.946;14.610;2024-01-10T01:15:46;26.00;;;11.15;;
4198;SDS011;2113;50.946;14.610;2024-01-10T01:18:15;27.77;;;11.27;;
4198;SDS011;2113;50.946;14.610;2024-01-10T07:08:34;6.00;;;3.05;;
4198;SDS011;2113;50.946;14.610;2024-01-10T07:11:50;8.60;;;2.60;;
4198;SDS011;2113;50.946;14.610;2024-01-10T07:14:22;10.43;;;4.25;;
4198;SDS011;2113;50.946;14.610;2024-01-10T07:16:50;7.95;;;3.05;;
4198;SDS011;2113;50.946;14.610;2024-01-10T07:19:19;12.20;;;4.15;;
4198;SDS011;2113;50.946;14.610;2024-01-10T07:21:47;10.80;;;4.50;;
4198;SDS011;2113;50.946;14.610;2024-01-10T07:24:16;10.85;;;4.95;;
4198;SDS011;2113;50.946;14.610;2024-01-10T07:26:45;19.67;;;7.55;;
4198;SDS011;2113;50.946;14.610;2024-01-10T07:29:14;12.65;;;4.30;;
4198;SDS011;2113;50.946;14.610;2024-01-10T07:31:42;8.70;;;4.10;;
4198;SDS011;2113;50.946;14.610;2024-01-10T07:34:11;9.02;;;4.40;;
4198;SDS011;2113;50.946;14.610;2024-01-10T07:36:42;11.55;;;5.03;;
4198;SDS011;2113;50.946;14.610;2024-01-10T07:39:11;10.00;;;4.00;;
4198;SDS011;2113;50.946;14.610;2024-01-10T07:41:43;8.43;;;3.22;;
4198;SDS011;2113;50.946;14.610;2024-01-10T07:44:12;7.20;;;4.05;;
4198;SDS011;2113;50.946;14.610;2024-01-10T07:46:40;7.53;;;4.10;;
4198;SDS011;2113;50.946;14.610;2024-01-10T07:49:08;14.88;;;5.55;;
4198;SDS011;2113;50.946;14.610;2024-01-10T07:51:37;12.10;;;4.72;;
4198;SDS011;2113;50.946;14.610;2024-01-10T07:54:05;10.30;;;5.32;;
4198;SDS011;2113;50.946;14.610;2024-01-10T07:56:33;14.88;;;6.30;;
4198;SDS011;2113;50.946;14.610;2024-01-10T07:59:02;12.32;;;5.60;;
4198;SDS011;2113;50.946;14.610;2024-01-10T08:01:32;9.45;;;5.75;;
4198;SDS011;2113;50.946;14.610;2024-01-10T08:04:00;16.67;;;6.95;;
4198;SDS011;2113;50.946;14.610;2024-01-10T08:06:29;15.20;;;8.25;;
4198;SDS011;2113;50.946;14.610;2024-01-10T08:08:59;19.42;;;8.00;;
4198;SDS011;2113;50.946;14.610;2024-01-10T08:11:31;16.83;;;8.73;;
4198;SDS011;2113;50.946;14.610;2024-01-10T08:13:59;15.02;;;8.80;;
4198;SDS011;2113;50.946;14.610;2024-01-10T08:16:30;19.27;;;10.18;;
4198;SDS011;2113;50.946;14.610;2024-01-10T08:18:59;18.00;;;9.52;;
4198;SDS011;2113;50.946;14.610;2024-01-10T08:21:27;20.00;;;10.40;;
4198;SDS011;2113;50.946;14.610;2024-01-10T08:23:56;14.40;;;7.90;;
4198;SDS011;2113;50.946;14.610;2024-01-10T08:26:24;14.55;;;7.97;;
4198;SDS011;2113;50.946;14.610;2024-01-10T08:28:52;25.48;;;15.40;;
4198;SDS011;2113;50.946;14.610;2024-01-10T08:31:21;19.60;;;13.07;;
4198;SDS011;2113;50.946;14.610;2024-01-10T08:33:50;28.95;;;18.98;;
4198;SDS011;2113;50.946;14.610;2024-01-10T08:36:21;26.27;;;16.58;;
4198;SDS011;2113;50.946;14.610;2024-01-10T08:38:50;34.95;;;24.88;;
4198;SDS011;2113;50.946;14.610;2024-01-10T08:41:19;22.15;;;11.95;;
4198;SDS011;2113;50.946;14.610;2024-01-10T08:43:47;15.13;;;11.55;;
4198;SDS011;2113;50.946;14.610;2024-01-10T08:46:15;43.25;;;26.13;;
4198;SDS011;2113;50.946;14.610;2024-01-10T08:48:44;46.13;;;27.15;;
4198;SDS011;2113;50.946;14.610;2024-01-10T08:51:15;22.75;;;13.80;;
4198;SDS011;2113;50.946;14.610;2024-01-10T08:53:44;36.35;;;18.83;;
4198;SDS011;2113;50.946;14.610;2024-01-10T08:56:12;24.67;;;15.70;;
4198;SDS011;2113;50.946;14.610;2024-01-10T08:58:40;37.78;;;19.02;;
4198;SDS011;2113;50.946;14.610;2024-01-10T09:01:08;29.00;;;13.35;;
4198;SDS011;2113;50.946;14.610;2024-01-10T09:03:37;20.17;;;11.55;;
4198;SDS011;2113;50.946;14.610;2024-01-10T09:06:06;18.98;;;8.57;;
4198;SDS011;2113;50.946;14.610;2024-01-10T09:08:39;17.88;;;9.90;;
4198;SDS011;2113;50.946;14.610;2024-01-10T09:11:07;15.73;;;8.82;;
4198;SDS011;2113;50.946;14.610;2024-01-10T09:13:36;13.45;;;8.18;;
4198;SDS011;2113;50.946;14.610;2024-01-10T09:16:07;11.75;;;7.30;;
4198;SDS011;2113;50.946;14.610;2024-01-10T09:18:36;12.07;;;6.38;;
4198;SDS011;2113;50.946;14.610;2024-01-10T09:21:05;13.82;;;6.57;;
4198;SDS011;2113;50.946;14.610;2024-01-10T09:23:34;27.20;;;8.77;;
4198;SDS011;2113;50.946;14.610;2024-01-10T09:26:03;23.75;;;9.50;;
4198;SDS011;2113;50.946;14.610;2024-01-10T09:28:31;27.45;;;14.05;;
4198;SDS011;2113;50.946;14.610;2024-01-10T09:31:00;36.80;;;17.25;;
4198;SDS011;2113;50.946;14.610;2024-01-10T09:33:28;34.25;;;17.83;;
4198;SDS011;2113;50.946;14.610;2024-01-10T09:35:56;30.95;;;16.80;;
4198;SDS011;2113;50.946;14.610;2024-01-10T09:38:27;34.78;;;13.63;;
4198;SDS011;2113;50.946;14.610;2024-01-10T09:40:59;35.63;;;14.45;;
4198;SDS011;2113;50.946;14.610;2024-01-10T09:43:32;45.67;;;24.20;;
4198;SDS011;2113;50.946;14.610;2024-01-10T09:46:01;69.63;;;35.17;;
4198;SDS011;2113;50.946;14.610;2024-01-10T09:48:30;76.53;;;36.03;;
4198;SDS011;2113;50.946;14.610;2024-01-10T09:50:59;87.15;;;37.17;;
4198;SDS011;2113;50.946;14.610;2024-01-10T09:53:28;93.57;;;46.40;;
4198;SDS011;2113;50.946;14.610;2024-01-10T09:56:03;103.50;;;50.80;;
4198;SDS011;2113;50.946;14.610;2024-01-10T09:58:34;101.22;;;47.42;;
4198;SDS011;2113;50.946;14.610;2024-01-10T10:01:06;62.63;;;30.90;;
4198;SDS011;2113;50.946;14.610;2024-01-10T10:03:36;63.25;;;33.13;;
4198;SDS011;2113;50.946;14.610;2024-01-10T10:06:06;79.15;;;34.72;;
4198;SDS011;2113;50.946;14.610;2024-01-10T10:08:40;58.90;;;30.23;;
4198;SDS011;2113;50.946;14.610;2024-01-10T10:11:11;49.30;;;27.90;;
4198;SDS011;2113;50.946;14.610;2024-01-10T10:13:41;42.10;;;25.30;;
4198;SDS011;2113;50.946;14.610;2024-01-10T10:16:09;48.03;;;21.63;;
4198;SDS011;2113;50.946;14.610;2024-01-10T10:18:39;33.97;;;17.42;;
4198;SDS011;2113;50.946;14.610;2024-01-10T10:21:09;23.60;;;10.85;;
4198;SDS011;2113;50.946;14.610;2024-01-10T10:23:39;32.13;;;12.88;;
4198;SDS011;2113;50.946;14.610;2024-01-10T10:26:11;24.10;;;14.18;;
4198;SDS011;2113;50.946;14.610;2024-01-10T10:28:48;21.95;;;11.43;;
4198;SDS011;2113;50.946;14.610;2024-01-10T10:31:17;20.90;;;11.48;;
4198;SDS011;2113;50.946;14.610;2024-01-10T10:33:46;18.88;;;9.68;;
4198;SDS011;2113;50.946;14.610;2024-01-10T10:36:17;22.17;;;10.60;;
4198;SDS011;2113;50.946;14.610;2024-01-10T10:38:46;24.85;;;12.80;;
4198;SDS011;2113;50.946;14.610;2024-01-10T10:41:15;24.73;;;10.85;;
4198;SDS011;2113;50.946;14.610;2024-01-10T10:43:43;22.58;;;13.48;;
4198;SDS011;2113;50.946;14.610;2024-01-10T10:46:13;17.95;;;9.27;;
4198;SDS011;2113;50.946;14.610;2024-01-10T10:48:42;18.65;;;10.57;;
4198;SDS011;2113;50.946;14.610;2024-01-10T10:51:11;13.93;;;6.38;;
4198;SDS011;2113;50.946;14.610;2024-01-10T10:53:46;12.88;;;6.95;;
4198;SDS011;2113;50.946;14.610;2024-01-10T10:56:46;15.85;;;7.00;;
4198;SDS011;2113;50.946;14.610;2024-01-10T10:59:18;13.55;;;7.35;;
4198;SDS011;2113;50.946;14.610;2024-01-10T11:01:49;10.80;;;5.85;;
4198;SDS011;2113;50.946;14.610;2024-01-10T11:04:20;13.70;;;6.25;;
4198;SDS011;2113;50.946;14.610;2024-01-10T11:06:49;12.05;;;6.13;;
4198;SDS011;2113;50.946;14.610;2024-01-10T11:09:18;13.32;;;6.40;;
4198;SDS011;2113;50.946;14.610;2024-01-10T11:11:56;16.00;;;5.65;;
4198;SDS011;2113;50.946;14.610;2024-01-10T11:14:42;9.32;;;4.40;;
4198;SDS011;2113;50.946;14.610;2024-01-10T11:17:29;13.68;;;3.83;;
4198;SDS011;2113;50.946;14.610;2024-01-10T11:20:13;11.35;;;5.18;;
4198;SDS011;2113;50.946;14.610;2024-01-10T11:23:10;9.85;;;5.35;;
4198;SDS011;2113;50.946;14.610;2024-01-10T11:25:56;12.50;;;5.72;;
4198;SDS011;2113;50.946;14.610;2024-01-10T11:28:26;11.77;;;5.35;;
4198;SDS011;2113;50.946;14.610;2024-01-10T11:30:54;8.10;;;4.70;;
4198;SDS011;2113;50.946;14.610;2024-01-10T11:33:25;9.50;;;4.68;;
4198;SDS011;2113;50.946;14.610;2024-01-10T11:36:05;12.27;;;5.07;;
4198;SDS011;2113;50.946;14.610;2024-01-10T11:38:40;12.23;;;5.57;;
4198;SDS011;2113;50.946;14.610;2024-01-10T11:41:10;14.07;;;5.70;;
4198;SDS011;2113;50.946;14.610;2024-01-10T11:43:39;10.90;;;4.07;;
4198;SDS011;2113;50.946;14.610;2024-01-10T11:46:08;11.68;;;5.55;;
4198;SDS011;2113;50.946;14.610;2024-01-10T11:48:38;9.48;;;4.22;;
4198;SDS011;2113;50.946;14.610;2024-01-10T11:51:08;9.55;;;3.90;;
4198;SDS011;2113;50.946;14.610;2024-01-10T11:53:40;7.45;;;4.80;;
4198;SDS011;2113;50.946;14.610;2024-01-10T11:56:13;10.73;;;3.97;;
4198;SDS011;2113;50.946;14.610;2024-01-10T11:58:55;7.97;;;4.40;;
4198;SDS011;2113;50.946;14.610;2024-01-10T12:01:30;8.57;;;3.70;;
4198;SDS011;2113;50.946;14.610;2024-01-10T12:04:00;9.52;;;3.67;;
4198;SDS011;2113;50.946;14.610;2024-01-10T12:06:43;8.45;;;4.25;;
4198;SDS011;2113;50.946;14.610;2024-01-10T12:09:13;8.27;;;4.25;;
4198;SDS011;2113;50.946;14.610;2024-01-10T12:11:41;7.88;;;4.35;;
4198;SDS011;2113;50.946;14.610;2024-01-10T12:14:10;7.45;;;4.20;;
4198;SDS011;2113;50.946;14.610;2024-01-10T12:16:39;8.82;;;4.78;;
4198;SDS011;2113;50.946;14.610;2024-01-10T12:19:08;9.18;;;5.25;;
4198;SDS011;2113;50.946;14.610;2024-01-10T12:21:36;11.48;;;4.85;;
4198;SDS011;2113;50.946;14.610;2024-01-10T12:24:05;10.40;;;6.05;;
4198;SDS011;2113;50.946;14.610;2024-01-10T12:26:34;9.15;;;5.60;;
4198;SDS011;2113;50.946;14.610;2024-01-10T12:29:02;12.63;;;4.95;;
4198;SDS011;2113;50.946;14.610;2024-01-10T12:31:33;11.50;;;5.15;;
4198;SDS011;2113;50.946;14.610;2024-01-10T12:34:02;9.57;;;4.65;;
4198;SDS011;2113;50.946;14.610;2024-01-10T12:36:35;9.93;;;5.53;;
4198;SDS011;2113;50.946;14.610;2024-01-10T12:39:03;10.88;;;5.20;;
4198;SDS011;2113;50.946;14.610;2024-01-10T12:41:33;8.95;;;5.53;;
4198;SDS011;2113;50.946;14.610;2024-01-10T12:44:03;11.35;;;6.63;;
4198;SDS011;2113;50.946;14.610;2024-01-10T12:46:33;9.13;;;4.90;;
4198;SDS011;2113;50.946;14.610;2024-01-10T12:49:02;10.52;;;5.50;;
4198;SDS011;2113;50.946;14.610;2024-01-10T12:51:32;9.73;;;5.15;;
4198;SDS011;2113;50.946;14.610;2024-01-10T12:54:07;12.55;;;6.18;;
4198;SDS011;2113;50.946;14.610;2024-01-10T12:56:35;9.10;;;5.15;;
4198;SDS011;2113;50.946;14.610;2024-01-10T12:59:04;12.85;;;6.40;;
4198;SDS011;2113;50.946;14.610;2024-01-10T13:01:32;14.32;;;7.65;;
4198;SDS011;2113;50.946;14.610;2024-01-10T13:04:00;12.60;;;6.57;;
4198;SDS011;2113;50.946;14.610;2024-01-10T13:06:32;13.95;;;6.30;;
4198;SDS011;2113;50.946;14.610;2024-01-10T13:09:00;7.22;;;4.28;;
4198;SDS011;2113;50.946;14.610;2024-01-10T13:11:30;11.02;;;5.30;;
4198;SDS011;2113;50.946;14.610;2024-01-10T13:13:59;10.32;;;4.70;;
4198;SDS011;2113;50.946;14.610;2024-01-10T13:16:28;8.43;;;4.18;;
4198;SDS011;2113;50.946;14.610;2024-01-10T13:19:02;8.68;;;4.50;;
4198;SDS011;2113;50.946;14.610;2024-01-10T13:21:31;9.73;;;3.90;;
4198;SDS011;2113;50.946;14.610;2024-01-10T13:24:01;5.60;;;3.80;;
4198;SDS011;2113;50.946;14.610;2024-01-10T13:26:31;5.95;;;3.50;;
4198;SDS011;2113;50.946;14.610;2024-01-10T13:29:00;11.55;;;5.45;;
4198;SDS011;2113;50.946;14.610;2024-01-10T13:31:29;9.13;;;4.50;;
4198;SDS011;2113;50.946;14.610;2024-01-10T13:33:57;11.40;;;5.53;;
4198;SDS011;2113;50.946;14.610;2024-01-10T13:36:26;11.10;;;5.28;;
4198;SDS011;2113;50.946;14.610;2024-01-10T13:38:54;8.85;;;5.35;;
4198;SDS011;2113;50.946;14.610;2024-01-10T13:41:22;10.45;;;7.30;;
4198;SDS011;2113;50.946;14.610;2024-01-10T13:43:52;11.55;;;7.32;;
4198;SDS011;2113;50.946;14.610;2024-01-10T13:46:22;14.75;;;7.50;;
4198;SDS011;2113;50.946;14.610;2024-01-10T13:48:50;15.80;;;7.65;;
4198;SDS011;2113;50.946;14.610;2024-01-10T13:51:18;17.15;;;9.38;;
4198;SDS011;2113;50.946;14.610;2024-01-10T13:53:46;12.30;;;7.43;;
4198;SDS011;2113;50.946;14.610;2024-01-10T13:56:16;12.50;;;7.40;;
4198;SDS011;2113;50.946;14.610;2024-01-10T13:58:44;9.43;;;6.50;;
4198;SDS011;2113;50.946;14.610;2024-01-10T14:01:14;16.80;;;7.15;;
4198;SDS011;2113;50.946;14.610;2024-01-10T14:03:42;13.13;;;6.63;;
4198;SDS011;2113;50.946;14.610;2024-01-10T14:06:11;12.30;;;6.05;;
4198;SDS011;2113;50.946;14.610;2024-01-10T14:08:40;9.95;;;5.45;;
4198;SDS011;2113;50.946;14.610;2024-01-10T14:11:10;13.55;;;6.88;;
4198;SDS011;2113;50.946;14.610;2024-01-10T14:13:38;13.30;;;6.15;;
4198;SDS011;2113;50.946;14.610;2024-01-10T14:16:06;10.68;;;6.40;;
4198;SDS011;2113;50.946;14.610;2024-01-10T14:18:39;16.33;;;8.45;;
4198;SDS011;2113;50.946;14.610;2024-01-10T14:21:07;14.23;;;6.78;;
4198;SDS011;2113;50.946;14.610;2024-01-10T14:23:35;12.40;;;7.03;;
4198;SDS011;2113;50.946;14.610;2024-01-10T14:26:04;14.93;;;7.75;;
4198;SDS011;2113;50.946;14.610;2024-01-10T14:28:33;18.35;;;9.30;;
4198;SDS011;2113;50.946;14.610;2024-01-10T14:31:01;19.17;;;9.23;;
4198;SDS011;2113;50.946;14.610;2024-01-10T14:33:45;22.00;;;8.88;;
4198;SDS011;2113;50.946;14.610;2024-01-10T14:36:14;16.45;;;7.00;;
4198;SDS011;2113;50.946;14.610;2024-01-10T14:38:42;16.30;;;6.68;;
4198;SDS011;2113;50.946;14.610;2024-01-10T14:41:11;14.20;;;8.13;;
4198;SDS011;2113;50.946;14.610;2024-01-10T14:43:39;18.88;;;9.75;;
4198;SDS011;2113;50.946;14.610;2024-01-10T14:46:07;14.35;;;7.80;;
4198;SDS011;2113;50.946;14.610;2024-01-10T14:48:36;24.77;;;9.38;;
4198;SDS011;2113;50.946;14.610;2024-01-10T14:51:06;13.70;;;8.35;;
4198;SDS011;2113;50.946;14.610;2024-01-10T14:53:35;14.65;;;8.57;;
4198;SDS011;2113;50.946;14.610;2024-01-10T14:56:03;15.57;;;8.23;;
4198;SDS011;2113;50.946;14.610;2024-01-10T14:58:32;18.38;;;8.30;;
4198;SDS011;2113;50.946;14.610;2024-01-10T15:01:01;14.77;;;8.50;;
4198;SDS011;2113;50.946;14.610;2024-01-10T15:03:29;19.25;;;10.93;;
4198;SDS011;2113;50.946;14.610;2024-01-10T15:05:58;20.17;;;10.48;;
4198;SDS011;2113;50.946;14.610;2024-01-10T15:08:29;36.63;;;18.70;;
4198;SDS011;2113;50.946;14.610;2024-01-10T15:10:57;21.63;;;11.02;;
4198;SDS011;2113;50.946;14.610;2024-01-10T15:13:25;33.65;;;16.77;;
4198;SDS011;2113;50.946;14.610;2024-01-10T15:15:55;50.95;;;25.83;;
4198;SDS011;2113;50.946;14.610;2024-01-10T15:18:23;43.90;;;23.02;;
4198;SDS011;2113;50.946;14.610;2024-01-10T15:20:51;37.60;;;18.50;;
4198;SDS011;2113;50.946;14.610;2024-01-10T15:23:20;25.08;;;10.02;;
4198;SDS011;2113;50.946;14.610;2024-01-10T15:25:49;26.83;;;10.23;;
4198;SDS011;2113;50.946;14.610;2024-01-10T15:28:17;42.13;;;20.35;;
4198;SDS011;2113;50.946;14.610;2024-01-10T15:30:45;39.42;;;18.10;;
4198;SDS011;2113;50.946;14.610;2024-01-10T15:33:14;25.63;;;14.32;;
4198;SDS011;2113;50.946;14.610;2024-01-10T15:35:44;13.40;;;8.68;;
4198;SDS011;2113;50.946;14.610;2024-01-10T15:38:13;16.65;;;8.20;;
4198;SDS011;2113;50.946;14.610;2024-01-10T15:40:41;13.02;;;6.75;;
4198;SDS011;2113;50.946;14.610;2024-01-10T15:43:11;11.90;;;6.82;;
4198;SDS011;2113;50.946;14.610;2024-01-10T15:45:39;18.25;;;6.65;;
4198;SDS011;2113;50.946;14.610;2024-01-10T15:48:08;12.55;;;6.97;;
4198;SDS011;2113;50.946;14.610;2024-01-10T15:50:36;13.85;;;5.97;;
4198;SDS011;2113;50.946;14.610;2024-01-10T15:53:05;15.73;;;7.13;;
4198;SDS011;2113;50.946;14.610;2024-01-10T15:55:33;30.27;;;15.45;;
4198;SDS011;2113;50.946;14.610;2024-01-10T15:58:03;32.60;;;16.80;;
4198;SDS011;2113;50.946;14.610;2024-01-10T16:00:34;17.85;;;9.95;;
4198;SDS011;2113;50.946;14.610;2024-01-10T16:03:03;19.45;;;11.40;;
4198;SDS011;2113;50.946;14.610;2024-01-10T16:05:33;33.90;;;9.25;;
4198;SDS011;2113;50.946;14.610;2024-01-10T16:08:02;23.05;;;12.02;;
4198;SDS011;2113;50.946;14.610;2024-01-10T16:10:31;15.90;;;9.18;;
4198;SDS011;2113;50.946;14.610;2024-01-10T16:12:59;26.08;;;13.38;;
4198;SDS011;2113;50.946;14.610;2024-01-10T16:15:27;24.77;;;10.10;;
4198;SDS011;2113;50.946;14.610;2024-01-10T16:17:57;35.05;;;16.48;;
4198;SDS011;2113;50.946;14.610;2024-01-10T16:20:26;27.10;;;12.73;;
4198;SDS011;2113;50.946;14.610;2024-01-10T16:22:54;21.00;;;11.48;;
4198;SDS011;2113;50.946;14.610;2024-01-10T16:25:22;18.48;;;9.20;;
4198;SDS011;2113;50.946;14.610;2024-01-10T16:27:51;45.25;;;15.30;;
4198;SDS011;2113;50.946;14.610;2024-01-10T16:30:23;29.45;;;13.98;;
4198;SDS011;2113;50.946;14.610;2024-01-10T16:32:51;31.23;;;15.07;;
4198;SDS011;2113;50.946;14.610;2024-01-10T16:35:21;19.08;;;7.43;;
4198;SDS011;2113;50.946;14.610;2024-01-10T16:37:49;16.50;;;5.18;;
4198;SDS011;2113;50.946;14.610;2024-01-10T16:40:17;15.65;;;6.85;;
4198;SDS011;2113;50.946;14.610;2024-01-10T16:42:45;14.45;;;5.63;;
4198;SDS011;2113;50.946;14.610;2024-01-10T16:45:14;16.52;;;6.40;;
4198;SDS011;2113;50.946;14.610;2024-01-10T16:47:42;19.25;;;7.22;;
4198;SDS011;2113;50.946;14.610;2024-01-10T16:50:10;10.90;;;6.45;;
4198;SDS011;2113;50.946;14.610;2024-01-10T16:52:40;15.45;;;7.30;;
4198;SDS011;2113;50.946;14.610;2024-01-10T16:55:08;12.05;;;6.47;;
4198;SDS011;2113;50.946;14.610;2024-01-10T16:57:37;14.73;;;7.85;;
4198;SDS011;2113;50.946;14.610;2024-01-10T17:00:06;18.27;;;9.65;;
4198;SDS011;2113;50.946;14.610;2024-01-10T17:02:35;23.00;;;10.60;;
4198;SDS011;2113;50.946;14.610;2024-01-10T17:05:04;18.90;;;11.13;;
4198;SDS011;2113;50.946;14.610;2024-01-10T17:07:35;18.63;;;10.82;;
4198;SDS011;2113;50.946;14.610;2024-01-10T17:10:05;26.65;;;11.73;;
4198;SDS011;2113;50.946;14.610;2024-01-10T17:12:36;24.20;;;10.63;;
4198;SDS011;2113;50.946;14.610;2024-01-10T17:15:04;23.30;;;9.88;;
4198;SDS011;2113;50.946;14.610;2024-01-10T17:17:34;18.52;;;8.43;;
4198;SDS011;2113;50.946;14.610;2024-01-10T17:20:05;17.40;;;8.85;;
4198;SDS011;2113;50.946;14.610;2024-01-10T17:22:34;18.92;;;9.23;;
4198;SDS011;2113;50.946;14.610;2024-01-10T17:25:07;18.13;;;8.38;;
4198;SDS011;2113;50.946;14.610;2024-01-10T17:27:36;18.77;;;9.80;;
4198;SDS011;2113;50.946;14.610;2024-01-10T17:30:05;22.33;;;11.65;;
4198;SDS011;2113;50.946;14.610;2024-01-10T17:32:34;24.85;;;10.27;;
4198;SDS011;2113;50.946;14.610;2024-01-10T17:35:02;28.15;;;11.43;;
4198;SDS011;2113;50.946;14.610;2024-01-10T17:37:31;23.48;;;11.38;;
4198;SDS011;2113;50.946;14.610;2024-01-10T17:39:59;36.10;;;12.70;;
4198;SDS011;2113;50.946;14.610;2024-01-10T17:42:30;24.92;;;10.65;;
4198;SDS011;2113;50.946;14.610;2024-01-10T17:44:58;26.42;;;11.73;;
4198;SDS011;2113;50.946;14.610;2024-01-10T17:47:26;25.77;;;11.32;;
4198;SDS011;2113;50.946;14.610;2024-01-10T17:49:56;15.75;;;10.63;;
4198;SDS011;2113;50.946;14.610;2024-01-10T17:52:26;25.67;;;9.75;;
4198;SDS011;2113;50.946;14.610;2024-01-10T17:54:55;21.73;;;11.35;;
4198;SDS011;2113;50.946;14.610;2024-01-10T17:57:23;21.80;;;10.98;;
4198;SDS011;2113;50.946;14.610;2024-01-10T17:59:56;28.73;;;12.00;;
4198;SDS011;2113;50.946;14.610;2024-01-10T18:02:24;23.33;;;13.15;;
4198;SDS011;2113;50.946;14.610;2024-01-10T18:04:52;25.52;;;14.13;;
4198;SDS011;2113;50.946;14.610;2024-01-10T18:07:21;25.77;;;12.35;;
4198;SDS011;2113;50.946;14.610;2024-01-10T18:09:49;26.58;;;11.90;;
4198;SDS011;2113;50.946;14.610;2024-01-10T18:12:17;20.45;;;11.88;;
4198;SDS011;2113;50.946;14.610;2024-01-10T18:14:45;24.08;;;11.35;;
4198;SDS011;2113;50.946;14.610;2024-01-10T18:17:18;23.08;;;10.73;;
4198;SDS011;2113;50.946;14.610;2024-01-10T18:19:46;20.58;;;9.45;;
4198;SDS011;2113;50.946;14.610;2024-01-10T18:22:15;21.85;;;9.38;;
4198;SDS011;2113;50.946;14.610;2024-01-10T18:24:43;21.75;;;9.13;;
4198;SDS011;2113;50.946;14.610;2024-01-10T18:27:11;24.10;;;11.02;;
4198;SDS011;2113;50.946;14.610;2024-01-10T18:29:39;37.95;;;15.73;;
4198;SDS011;2113;50.946;14.610;2024-01-10T18:32:08;36.33;;;14.80;;
4198;SDS011;2113;50.946;14.610;2024-01-10T18:34:38;34.30;;;12.52;;
4198;SDS011;2113;50.946;14.610;2024-01-10T18:37:06;18.95;;;10.52;;
4198;SDS011;2113;50.946;14.610;2024-01-10T18:39:34;22.05;;;10.48;;
4198;SDS011;2113;50.946;14.610;2024-01-10T18:42:03;18.20;;;9.10;;
4198;SDS011;2113;50.946;14.610;2024-01-10T18:44:32;23.63;;;9.30;;
4198;SDS011;2113;50.946;14.610;2024-01-10T18:47:02;24.27;;;10.77;;
4198;SDS011;2113;50.946;14.610;2024-01-10T18:49:31;22.80;;;10.95;;
4198;SDS011;2113;50.946;14.610;2024-01-10T18:52:01;21.50;;;10.48;;
4198;SDS011;2113;50.946;14.610;2024-01-10T18:54:31;26.85;;;10.77;;
4198;SDS011;2113;50.946;14.610;2024-01-10T18:56:59;17.83;;;8.70;;
4198;SDS011;2113;50.946;14.610;2024-01-10T18:59:28;18.77;;;11.85;;
4198;SDS011;2113;50.946;14.610;2024-01-10T19:01:56;22.35;;;10.77;;
4198;SDS011;2113;50.946;14.610;2024-01-10T19:04:24;23.70;;;10.45;;
4198;SDS011;2113;50.946;14.610;2024-01-10T19:06:53;26.42;;;10.07;;
4198;SDS011;2113;50.946;14.610;2024-01-10T19:09:24;26.02;;;10.50;;
4198;SDS011;2113;50.946;14.610;2024-01-10T19:11:52;29.00;;;11.40;;
4198;SDS011;2113;50.946;14.610;2024-01-10T19:14:21;22.48;;;10.70;;
4198;SDS011;2113;50.946;14.610;2024-01-10T19:16:51;44.03;;;17.60;;
4198;SDS011;2113;50.946;14.610;2024-01-10T19:19:19;27.95;;;17.60;;
4198;SDS011;2113;50.946;14.610;2024-01-10T19:21:51;28.90;;;11.43;;
4198;SDS011;2113;50.946;14.610;2024-01-10T19:24:20;25.45;;;11.73;;
4198;SDS011;2113;50.946;14.610;2024-01-10T19:26:51;22.83;;;11.57;;
4198;SDS011;2113;50.946;14.610;2024-01-10T19:29:21;26.67;;;10.95;;
4198;SDS011;2113;50.946;14.610;2024-01-10T19:31:49;18.17;;;8.65;;
4198;SDS011;2113;50.946;14.610;2024-01-10T19:34:17;22.63;;;9.98;;
4198;SDS011;2113;50.946;14.610;2024-01-10T19:36:45;28.83;;;13.73;;
4198;SDS011;2113;50.946;14.610;2024-01-10T19:39:14;24.63;;;9.95;;
4198;SDS011;2113;50.946;14.610;2024-01-10T19:41:42;21.83;;;10.15;;
4198;SDS011;2113;50.946;14.610;2024-01-10T19:44:12;25.77;;;11.48;;
4198;SDS011;2113;50.946;14.610;2024-01-10T19:46:40;31.77;;;13.55;;
4198;SDS011;2113;50.946;14.610;2024-01-10T19:49:09;17.92;;;11.40;;
4198;SDS011;2113;50.946;14.610;2024-01-10T19:51:38;22.83;;;9.85;;
4198;SDS011;2113;50.946;14.610;2024-01-10T19:54:06;29.42;;;13.15;;
4198;SDS011;2113;50.946;14.610;2024-01-10T19:56:34;22.58;;;10.60;;
4198;SDS011;2113;50.946;14.610;2024-01-10T19:59:03;18.80;;;9.77;;
4198;SDS011;2113;50.946;14.610;2024-01-10T20:01:33;18.08;;;8.82;;
4198;SDS011;2113;50.946;14.610;2024-01-10T20:04:01;29.10;;;10.98;;
4198;SDS011;2113;50.946;14.610;2024-01-10T20:06:29;20.65;;;10.27;;
4198;SDS011;2113;50.946;14.610;2024-01-10T20:08:58;23.92;;;10.45;;
4198;SDS011;2113;50.946;14.610;2024-01-10T20:11:26;23.95;;;10.48;;
4198;SDS011;2113;50.946;14.610;2024-01-10T20:13:54;27.98;;;11.75;;
4198;SDS011;2113;50.946;14.610;2024-01-10T20:19:41;36.58;;;10.75;;
4198;SDS011;2113;50.946;14.610;2024-01-10T20:22:09;28.10;;;13.15;;
4198;SDS011;2113;50.946;14.610;2024-01-10T20:24:38;77.88;;;30.15;;
4198;SDS011;2113;50.946;14.610;2024-01-10T20:27:06;35.42;;;17.10;;
4198;SDS011;2113;50.946;14.610;2024-01-10T20:29:35;56.70;;;21.65;;
4198;SDS011;2113;50.946;14.610;2024-01-10T20:32:04;30.88;;;13.95;;
4198;SDS011;2113;50.946;14.610;2024-01-10T20:34:34;29.02;;;13.75;;
4198;SDS011;2113;50.946;14.610;2024-01-10T20:37:04;31.75;;;15.48;;
4198;SDS011;2113;50.946;14.610;2024-01-10T20:39:32;32.75;;;17.08;;
4198;SDS011;2113;50.946;14.610;2024-01-10T20:42:01;39.50;;;15.43;;
4198;SDS011;2113;50.946;14.610;2024-01-10T20:44:29;31.75;;;11.82;;
4198;SDS011;2113;50.946;14.610;2024-01-10T20:46:58;31.83;;;13.48;;
4198;SDS011;2113;50.946;14.610;2024-01-10T20:49:26;36.20;;;15.55;;